Miami, TX (79059)

7:34 AM CST on November 23, 2014 (GMT -0600)
Hemphill County | Change Station
CLOSE
Current Station
Airport
Location: Canadian,
Elevation: 2395 ft
Nearby Weather Stations
Active Advisory: Wind Advisory

Elev 2395 ft 35.89 °N, 100.40 °W | Updated 19 minutes ago

Partly Cloudy
Partly Cloudy
38 °F
Feels Like 35 °F
N
4
Wind Variable Wind from NW

Today
High -- | Low -- °F
--% Chance of Precip.
Yesterday
High -- | Low -- °F
Precip. -- in
7:26 AM 5:31 PM
New Moon, 1% visible
Pressure 29.44 in
Visibility 10.0 miles
Clouds Clear
Windchill 35 °F
Dew Point 36 °F
Humidity 94%
Rainfall 0.00 in
Snow Depth Not available.
UV 0 out of 12
Pollen 6.30 out of 12
Air Quality Not available.
Flu Activity Not available.
METAR KHHF 231315Z AUTO 31003KT 10SM CLR 03/02 A2944 RMK AO2 T00310022

More Conditions Fewer Conditions

Pressure 29.44 in
Visibility 10.0 miles
Clouds Clear
Windchill 35 °F
Dew Point 36 °F
Humidity 94%
Rainfall 0.00 in
Snow Depth Not available.
UV 0 out of 12
Pollen 6.30 out of 12
Air Quality Not available.
Flu Activity Not available.
METAR KHHF 231315Z AUTO 31003KT 10SM CLR 03/02 A2944 RMK AO2 T00310022

More Conditions Fewer Conditions

10-Day Weather Forecast

Almanac

Astronomy

Nov. 23, 2014 Rise Set
Actual Time
Civil Twilight
Nautical Twilight
Astronomical Twilight
Moon
Length of Visible Light
Length of Day
Tomorrow will be .
, % of the Moon is Illuminated

Today's Extremes

State Highs State Lows

Community

WunderPhotos

Upload Photos

1,773,057 photos uploaded!

WunderBlogs® & News

Nearby

Air Quality

  Air Quality AQ Index Pollutant
Not available.

Snow Depth

Station Depth Elevation

Earthquake Activity

City Distance Mag. Time & Date
Minimum magnitude displayed is 2.5.

Coastal Water Temperatures

Place Temperature

Nearby Weather Stations